Time;durP1;ratioP1;P1;durP2;ratioP2;P2;SDS_P1;SDS_P2;PMS_P1;PMS_P2;Temp;Humidity;BMP_temperature;BMP_pressure;BME280_temperature;BME280_humidity;BME280_pressure;Samples;Min_cycle;Max_cycle;Signal;HPM_P1;HPM_P2
2021/01/11 00:00:37;;;;;;;20.35;12.30;;;;;;;-1.58;78.37;101245.75;1750421;79;21197;-78
2021/01/11 00:03:06;;;;;;;20.27;12.60;;;;;;;-1.64;78.43;101248.54;1762394;79;21698;-76
2021/01/11 00:05:33;;;;;;;24.90;14.55;;;;;;;-1.70;78.58;101246.56;1793358;79;21161;-79
2021/01/11 00:08:05;;;;;;;23.75;14.00;;;;;;;-1.74;78.66;101229.03;1756978;80;21381;-78
2021/01/11 00:10:36;;;;;;;21.00;13.80;;;;;;;-1.78;78.70;101232.11;1744022;80;21236;-77
2021/01/11 00:13:04;;;;;;;25.82;14.98;;;;;;;-1.81;78.76;101229.34;1767332;79;21172;-77
2021/01/11 00:15:32;;;;;;;24.90;13.20;;;;;;;-1.81;78.76;101229.81;1757653;81;21195;-77
2021/01/11 00:18:01;;;;;;;20.05;12.58;;;;;;;-1.81;78.79;101240.28;1756165;79;21201;-77
2021/01/11 00:20:30;;;;;;;23.42;12.53;;;;;;;-1.82;78.82;101243.40;1726819;80;21639;-77
2021/01/11 00:23:00;;;;;;;19.55;12.15;;;;;;;-1.84;78.79;101240.14;1787764;79;21196;-77
2021/01/11 00:25:28;;;;;;;18.98;12.13;;;;;;;-1.85;78.72;101246.33;1784150;79;21553;-78
2021/01/11 00:27:56;;;;;;;19.40;12.30;;;;;;;-1.88;78.66;101246.64;1751609;81;21584;-78
2021/01/11 00:30:25;;;;;;;19.27;11.75;;;;;;;-1.94;78.63;101247.27;1754675;80;21693;-77
2021/01/11 00:32:52;;;;;;;18.75;11.48;;;;;;;-1.96;78.65;101254.48;1738098;82;21213;-77
2021/01/11 00:35:21;;;;;;;19.82;11.75;;;;;;;-2.01;78.64;101259.36;1743305;79;21156;-78
2021/01/11 00:37:50;;;;;;;19.15;11.50;;;;;;;-2.06;78.64;101257.22;1748529;80;21672;-77
2021/01/11 00:40:18;;;;;;;21.77;11.73;;;;;;;-2.10;78.66;101259.02;1766165;81;21155;-79
2021/01/11 00:42:46;;;;;;;21.02;12.03;;;;;;;-2.15;78.69;101253.73;1786657;79;21165;-78
2021/01/11 00:45:14;;;;;;;19.55;11.90;;;;;;;-2.17;78.72;101255.70;1777967;80;21206;-78
2021/01/11 00:47:42;;;;;;;20.32;11.68;;;;;;;-2.23;78.71;101252.41;1778397;79;21575;-77
2021/01/11 00:50:12;;;;;;;20.52;11.68;;;;;;;-2.27;78.73;101248.93;1788990;79;21136;-79
2021/01/11 00:52:42;;;;;;;19.95;12.63;;;;;;;-2.33;78.84;101246.96;1769777;81;21213;-79
2021/01/11 00:55:13;;;;;;;21.35;12.03;;;;;;;-2.35;78.93;101249.72;1752929;80;21162;-78
2021/01/11 00:57:43;;;;;;;21.87;12.40;;;;;;;-2.38;79.00;101257.88;1754745;81;21306;-78
2021/01/11 01:00:15;;;;;;;20.70;12.37;;;;;;;-2.42;79.05;101261.78;1761350;80;21184;-79
2021/01/11 01:02:52;;;;;;;22.77;13.10;;;;;;;-2.40;79.14;101267.20;1778111;79;22818;-71
2021/01/11 01:05:19;;;;;;;25.35;13.48;;;;;;;-2.48;79.19;101265.83;1744244;80;21215;-71
2021/01/11 01:07:47;;;;;;;23.80;14.13;;;;;;;-2.57;79.45;101265.92;1748467;81;21805;-72
2021/01/11 01:10:15;;;;;;;23.98;13.80;;;;;;;-2.68;79.66;101267.81;1748139;80;21207;-71
2021/01/11 01:12:42;;;;;;;27.70;14.93;;;;;;;-2.81;79.90;101267.39;1736263;82;21156;-70
2021/01/11 01:15:11;;;;;;;37.65;19.62;;;;;;;-2.93;80.27;101268.59;1750869;81;21188;-71
2021/01/11 01:17:40;;;;;;;34.75;17.95;;;;;;;-3.02;80.53;101261.20;1762346;81;21136;-70
2021/01/11 01:20:15;;;;;;;35.65;19.23;;;;;;;-2.98;80.74;101270.86;1761822;81;21373;-70
2021/01/11 01:22:46;;;;;;;31.30;17.10;;;;;;;-3.00;80.91;101269.69;1736937;81;21141;-70
2021/01/11 01:25:14;;;;;;;37.85;19.98;;;;;;;-2.94;81.07;101274.31;1721309;81;21179;-70
2021/01/11 01:27:42;;;;;;;34.60;18.45;;;;;;;-2.91;81.17;101267.97;1758228;81;21123;-71
2021/01/11 01:30:11;;;;;;;34.95;19.75;;;;;;;-2.86;81.20;101272.27;1746353;81;21124;-70
2021/01/11 01:32:39;;;;;;;29.12;15.93;;;;;;;-2.83;81.32;101269.33;1753271;81;22695;-71
2021/01/11 01:35:10;;;;;;;32.88;16.80;;;;;;;-2.78;81.41;101273.63;1780579;79;21187;-70
2021/01/11 01:37:39;;;;;;;29.20;15.53;;;;;;;-2.81;81.38;101266.58;1760653;79;21135;-70
2021/01/11 01:40:07;;;;;;;26.42;14.53;;;;;;;-2.82;81.36;101265.77;1748972;79;21224;-71
2021/01/11 01:42:35;;;;;;;24.72;14.87;;;;;;;-2.84;81.35;101263.78;1743240;81;21198;-71
2021/01/11 01:45:06;;;;;;;26.27;15.13;;;;;;;-2.84;81.38;101262.47;1764785;81;21560;-70
2021/01/11 01:47:34;;;;;;;25.75;15.38;;;;;;;-2.87;81.38;101262.77;1749114;81;21623;-70
2021/01/11 01:50:07;;;;;;;25.92;14.38;;;;;;;-2.89;81.24;101259.50;1735195;81;21127;-70
2021/01/11 01:52:36;;;;;;;27.73;14.95;;;;;;;-2.91;81.44;101269.28;1763720;81;21210;-71
2021/01/11 01:55:09;;;;;;;26.05;14.87;;;;;;;-2.92;81.23;101282.02;1751897;81;21746;-70
2021/01/11 01:57:36;;;;;;;27.25;14.80;;;;;;;-2.93;81.22;101290.36;1749236;81;21263;-71
2021/01/11 02:00:06;;;;;;;23.70;14.50;;;;;;;-2.94;81.18;101298.33;1737856;81;21085;-70
2021/01/11 02:02:36;;;;;;;24.83;13.80;;;;;;;-3.00;81.16;101289.29;1760776;79;21187;-71
2021/01/11 02:05:07;;;;;;;23.15;12.90;;;;;;;-3.00;81.05;101293.70;1758696;81;22513;-71
2021/01/11 02:08:01;;;;;;;18.45;10.43;;;;;;;-3.03;81.00;101299.22;1755185;81;21191;-71
2021/01/11 02:11:15;;;;;;;23.43;12.80;;;;;;;-2.98;80.93;101303.53;1835727;77;23286;-71
2021/01/11 02:14:20;;;;;;;20.75;12.85;;;;;;;-3.06;80.86;101299.03;1789744;79;21116;-71
2021/01/11 02:16:56;;;;;;;24.50;14.58;;;;;;;-3.11;80.81;101298.67;1790816;78;21160;-71
2021/01/11 02:19:50;;;;;;;26.77;15.50;;;;;;;-3.15;80.81;101295.54;1809340;79;21494;-70
2021/01/11 02:22:59;;;;;;;25.80;14.63;;;;;;;-3.19;80.74;101285.52;1793308;79;21047;-71
2021/01/11 02:25:43;;;;;;;25.75;14.60;;;;;;;-3.19;80.74;101285.52;1791615;79;22084;-70
2021/01/11 02:28:40;;;;;;;27.13;15.98;;;;;;;-3.16;81.05;101291.75;1802406;77;21198;-71
2021/01/11 02:31:09;;;;;;;25.15;15.25;;;;;;;-3.15;81.15;101292.11;1685351;84;21825;-72
2021/01/11 02:33:36;;;;;;;28.40;15.55;;;;;;;-3.13;81.22;101289.66;1604963;86;21780;-71
2021/01/11 02:36:08;;;;;;;29.00;15.58;;;;;;;-3.09;81.32;101284.98;1586458;86;21214;-72
2021/01/11 02:38:37;;;;;;;;;;;;;;;-3.06;81.37;101271.59;1655705;85;21221;-72
2021/01/11 02:41:05;;;;;;;27.65;15.00;;;;;;;-3.05;81.41;101260.19;1664042;86;20283;-71
2021/01/11 02:43:33;;;;;;;24.43;13.93;;;;;;;-3.04;81.50;101242.71;1665328;86;21673;-71
2021/01/11 02:46:01;;;;;;;25.70;14.98;;;;;;;-3.04;81.50;101242.71;1694497;84;21195;-69
2021/01/11 02:48:34;;;;;;;28.07;15.13;;;;;;;-3.18;81.49;101246.69;1663115;84;21127;-72
2021/01/11 02:51:11;;;;;;;25.97;14.53;;;;;;;-3.18;81.49;101246.69;1664841;86;21132;-73
2021/01/11 02:54:04;;;;;;;29.57;16.30;;;;;;;-3.17;81.35;101241.78;1666840;84;21074;-71
2021/01/11 02:56:46;;;;;;;29.35;15.40;;;;;;;-3.14;81.75;101234.46;1682409;84;21407;-71
2021/01/11 02:59:37;;;;;;;29.13;15.93;;;;;;;-3.05;81.55;101238.47;1832835;76;23478;-73
2021/01/11 03:02:09;;;;;;;26.75;15.55;;;;;;;-3.08;81.63;101242.19;1825619;77;21133;-70
2021/01/11 03:04:38;;;;;;;26.62;15.50;;;;;;;-3.03;81.75;101226.05;1823532;77;21811;-71
2021/01/11 03:07:07;;;;;;;27.95;15.20;;;;;;;-2.98;81.66;101234.27;1818230;76;21165;-71
2021/01/11 03:09:40;;;;;;;29.10;16.10;;;;;;;-2.93;81.84;101242.45;1826972;77;21125;-71
2021/01/11 03:12:08;;;;;;;31.05;16.50;;;;;;;-2.88;81.93;101239.73;1841312;77;21118;-72
2021/01/11 03:14:37;;;;;;;26.42;16.15;;;;;;;-2.81;82.20;101245.66;1822348;77;21106;-71
2021/01/11 03:17:05;;;;;;;27.48;15.93;;;;;;;-2.74;81.99;101245.38;1816580;77;21141;-72
2021/01/11 03:19:34;;;;;;;26.02;14.65;;;;;;;-2.66;81.91;101253.30;1828977;77;21161;-71
2021/01/11 03:22:02;;;;;;;24.45;14.63;;;;;;;-2.64;81.86;101253.45;1838591;77;21189;-71
2021/01/11 03:24:30;;;;;;;24.15;15.30;;;;;;;-2.60;81.83;101258.73;1836372;77;21459;-71
2021/01/11 03:26:59;;;;;;;23.67;15.10;;;;;;;-2.58;81.81;101262.98;1849604;77;21129;-73
2021/01/11 03:29:27;;;;;;;27.58;16.12;;;;;;;-2.54;81.84;101267.74;1832251;77;21428;-72
2021/01/11 03:31:54;;;;;;;27.45;16.20;;;;;;;-2.50;81.85;101270.41;1838518;77;21078;-71
2021/01/11 03:34:22;;;;;;;24.92;15.72;;;;;;;-2.46;81.85;101270.92;1834321;77;21074;-71
2021/01/11 03:36:51;;;;;;;28.73;16.85;;;;;;;-2.42;81.86;101272.24;1816230;78;21038;-71
2021/01/11 03:39:18;;;;;;;26.33;15.40;;;;;;;-2.42;81.82;101267.83;1827784;77;21128;-71
2021/01/11 03:41:46;;;;;;;27.80;16.80;;;;;;;-2.41;81.85;101271.26;1826661;77;21354;-71
2021/01/11 03:44:14;;;;;;;26.87;16.02;;;;;;;-2.36;81.92;101275.55;1817217;77;21151;-72
2021/01/11 03:46:42;;;;;;;26.15;16.95;;;;;;;-2.32;81.92;101286.04;1838173;77;21118;-71
2021/01/11 03:49:10;;;;;;;28.38;16.87;;;;;;;-2.28;81.90;101280.82;1826627;76;21158;-71
2021/01/11 03:51:37;;;;;;;27.50;17.07;;;;;;;-2.24;81.91;101279.53;1854456;76;21528;-73
2021/01/11 03:54:05;;;;;;;28.92;16.93;;;;;;;-2.17;81.98;101275.83;1812436;78;21457;-72
2021/01/11 03:56:32;;;;;;;28.92;16.25;;;;;;;-2.09;81.95;101280.28;1814680;77;21058;-72
2021/01/11 03:59:01;;;;;;;27.17;15.88;;;;;;;-2.07;81.81;101287.47;1821979;77;21174;-71
2021/01/11 04:01:29;;;;;;;25.17;16.00;;;;;;;-2.09;81.78;101290.75;1821200;78;21056;-71
2021/01/11 04:03:57;;;;;;;29.80;17.95;;;;;;;-2.14;81.73;101284.19;1795565;78;21147;-72
2021/01/11 04:06:24;;;;;;;28.80;18.48;;;;;;;-2.15;81.78;101281.22;1824462;78;22671;-71
2021/01/11 04:08:52;;;;;;;27.35;16.67;;;;;;;-2.10;81.80;101279.46;1827346;77;21725;-72
2021/01/11 04:11:20;;;;;;;29.25;17.92;;;;;;;-2.08;81.80;101281.91;1830918;77;21100;-71
2021/01/11 04:13:48;;;;;;;30.72;19.02;;;;;;;-2.06;81.79;101287.33;1785251;79;21052;-72
2021/01/11 04:16:17;;;;;;;30.48;17.98;;;;;;;-2.05;81.76;101293.38;1810246;78;21091;-72
2021/01/11 04:18:44;;;;;;;28.57;17.35;;;;;;;-2.06;81.78;101294.36;1802641;77;22612;-72
2021/01/11 04:21:14;;;;;;;29.95;18.55;;;;;;;-2.02;81.80;101294.37;1802040;78;21123;-72
2021/01/11 04:23:42;;;;;;;32.42;18.80;;;;;;;-1.98;81.84;101297.82;1792895;80;21161;-72
2021/01/11 04:26:11;;;;;;;28.83;17.57;;;;;;;-1.95;81.83;101294.08;1792900;78;21135;-71
2021/01/11 04:28:38;;;;;;;27.32;17.17;;;;;;;-1.90;81.86;101291.33;1795346;77;21606;-71
2021/01/11 04:31:06;;;;;;;29.25;18.05;;;;;;;-1.81;81.92;101295.27;1808447;77;21373;-72
2021/01/11 04:33:34;;;;;;;28.25;17.85;;;;;;;-1.72;81.89;101292.53;1820876;77;21135;-71
2021/01/11 04:36:02;;;;;;;30.75;18.17;;;;;;;-1.68;81.77;101296.50;1825056;78;21053;-73
2021/01/11 04:38:30;;;;;;;31.70;18.57;;;;;;;-1.66;81.72;101295.83;1821186;77;21087;-71
2021/01/11 04:41:05;;;;;;;29.05;17.60;;;;;;;-1.63;81.66;101297.32;1812209;76;21659;-76
2021/01/11 04:43:42;;;;;;;26.95;17.48;;;;;;;-1.62;81.59;101292.41;1834761;77;21802;-70
2021/01/11 04:46:10;;;;;;;29.40;18.73;;;;;;;-1.61;81.52;101290.14;1824784;78;21124;-71
2021/01/11 04:48:37;;;;;;;29.12;18.12;;;;;;;-1.70;81.47;101285.84;1806123;77;21611;-72
2021/01/11 04:51:06;;;;;;;27.05;17.02;;;;;;;-1.80;81.50;101294.32;1816717;77;21108;-72
2021/01/11 04:53:34;;;;;;;27.62;16.62;;;;;;;-1.91;81.63;101288.85;1844238;75;21144;-72
2021/01/11 04:56:25;;;;;;;29.55;18.67;;;;;;;-2.00;81.70;101293.25;1830403;77;22350;-71
2021/01/11 04:58:57;;;;;;;29.12;18.25;;;;;;;-2.05;81.81;101294.20;1631583;86;21195;-72
2021/01/11 05:01:29;;;;;;;30.40;18.23;;;;;;;-2.02;81.92;101296.50;1629025;85;21695;-72
2021/01/11 05:04:01;;;;;;;27.77;16.35;;;;;;;-1.96;81.92;101305.05;1634795;86;21622;-72
2021/01/11 05:06:30;;;;;;;29.98;17.67;;;;;;;-1.96;81.88;101302.92;1649627;85;21088;-72
2021/01/11 05:09:07;;;;;;;29.57;17.15;;;;;;;-1.98;81.87;101293.08;1652041;86;22128;-72
2021/01/11 05:11:35;;;;;;;27.10;16.93;;;;;;;-2.00;81.98;101288.51;1646594;85;21163;-72
2021/01/11 05:14:02;;;;;;;29.52;18.35;;;;;;;-1.94;82.03;101287.85;1626953;86;21218;-71
2021/01/11 05:16:30;;;;;;;29.23;17.50;;;;;;;-1.88;82.00;101293.77;1667579;85;21163;-72
2021/01/11 05:19:23;;;;;;;30.43;18.27;;;;;;;-1.86;81.93;101294.45;1678214;85;21170;-72
2021/01/11 05:21:52;;;;;;;30.37;18.62;;;;;;;-1.86;81.86;101294.45;1661558;85;22712;-72
2021/01/11 05:24:37;;;;;;;29.07;18.20;;;;;;;-1.83;81.83;101293.33;1635793;86;21099;-72
2021/01/11 05:27:08;;;;;;;28.45;17.30;;;;;;;-1.79;81.83;101294.14;1655558;84;21622;-72
2021/01/11 05:29:38;;;;;;;31.00;17.52;;;;;;;-1.76;81.80;101295.14;1637561;86;21244;-72
2021/01/11 05:32:08;;;;;;;27.45;17.20;;;;;;;-1.76;81.74;101299.56;1657791;85;21177;-72
2021/01/11 05:34:53;;;;;;;31.50;18.67;;;;;;;-1.76;81.80;101301.69;1627406;86;21455;-72
2021/01/11 05:37:39;;;;;;;31.33;18.80;;;;;;;-1.77;81.77;101302.68;1657093;85;21234;-72
2021/01/11 05:40:11;;;;;;;29.48;18.27;;;;;;;-1.75;81.83;101307.25;1652409;85;21203;-71
2021/01/11 05:42:40;;;;;;;30.97;18.82;;;;;;;-1.68;81.88;101299.58;1683604;83;21146;-72
2021/01/11 05:45:18;;;;;;;28.98;17.98;;;;;;;-1.62;81.86;101302.88;1691288;84;21211;-73
2021/01/11 05:48:07;;;;;;;26.95;16.20;;;;;;;-1.55;81.85;101306.99;1688874;84;21359;-72
2021/01/11 05:50:47;;;;;;;26.62;16.65;;;;;;;-1.51;81.82;101300.48;1687656;83;21194;-71
2021/01/11 05:53:20;;;;;;;28.52;16.57;;;;;;;-1.50;81.67;101308.17;1653349;85;21342;-71
2021/01/11 05:55:53;;;;;;;28.67;16.32;;;;;;;-1.53;81.63;101297.19;1652334;85;21167;-71
2021/01/11 05:58:22;;;;;;;25.92;16.23;;;;;;;-1.52;81.61;101303.56;1656846;85;21120;-72
2021/01/11 06:00:50;;;;;;;27.45;16.70;;;;;;;-1.52;81.53;101302.75;1653813;85;22352;-70
2021/01/11 06:03:18;;;;;;;25.55;17.30;;;;;;;-1.59;81.48;101303.88;1651800;85;21178;-73
2021/01/11 06:05:46;;;;;;;28.35;16.45;;;;;;;-1.66;81.54;101311.55;1626069;88;21206;-71
2021/01/11 06:08:14;;;;;;;27.52;17.25;;;;;;;-1.63;81.63;101314.34;1650091;85;21167;-71
2021/01/11 06:10:45;;;;;;;29.10;17.62;;;;;;;-1.59;81.64;101314.36;1651921;86;21211;-71
2021/01/11 06:13:15;;;;;;;27.82;16.97;;;;;;;-1.53;81.60;101314.22;1651509;85;21681;-73
2021/01/11 06:15:44;;;;;;;27.02;16.60;;;;;;;-1.51;81.53;101319.64;1650491;86;21133;-71
2021/01/11 06:18:13;;;;;;;28.98;16.93;;;;;;;-1.48;81.50;101325.88;1646575;85;21159;-71
2021/01/11 06:20:43;;;;;;;28.65;17.75;;;;;;;-1.54;81.43;101325.69;1605265;85;21143;-72
2021/01/11 06:23:12;;;;;;;28.32;17.37;;;;;;;-1.62;81.44;101334.31;1648161;85;21174;-71
2021/01/11 06:25:43;;;;;;;30.00;18.32;;;;;;;-1.65;81.50;101335.94;1627626;86;21643;-72
2021/01/11 06:28:12;;;;;;;30.45;18.27;;;;;;;-1.59;81.57;101335.80;1651616;86;21183;-72
2021/01/11 06:30:45;;;;;;;25.50;16.67;;;;;;;-1.52;81.52;101331.56;1652704;86;21112;-72
2021/01/11 06:33:19;;;;;;;27.27;16.57;;;;;;;-1.48;81.49;101330.27;1650802;85;21186;-71
2021/01/11 06:35:49;;;;;;;24.85;15.78;;;;;;;-1.52;81.43;101330.26;1650057;85;21178;-72
2021/01/11 06:38:29;;;;;;;22.40;14.05;;;;;;;-1.60;81.46;101330.24;1650196;85;21457;-71
2021/01/11 06:41:10;;;;;;;27.10;17.45;;;;;;;-1.67;81.57;101329.56;1651452;85;21138;-71
2021/01/11 06:43:52;;;;;;;27.25;16.73;;;;;;;-1.76;81.63;101329.19;1657588;85;21170;-72
2021/01/11 06:49:26;;;;;;;27.13;16.77;;;;;;;-1.61;81.85;101324.66;1752475;80;22796;-72
2021/01/11 06:52:07;;;;;;;29.70;17.02;;;;;;;-1.61;81.77;101323.34;1757899;79;21154;-72
2021/01/11 06:54:41;;;;;;;29.98;17.98;;;;;;;-1.61;81.74;101328.12;1765998;80;21218;-73
2021/01/11 06:57:16;;;;;;;28.00;17.80;;;;;;;-1.63;81.77;101324.83;1775949;80;21238;-72
2021/01/11 06:59:47;;;;;;;30.32;18.87;;;;;;;-1.57;81.86;101320.77;1758772;80;21068;-71
2021/01/11 07:02:23;;;;;;;29.52;17.90;;;;;;;-1.47;81.89;101324.06;1764169;78;21210;-71
2021/01/11 07:04:52;;;;;;;29.95;17.77;;;;;;;-1.38;81.87;101328.82;1771566;80;21149;-71
2021/01/11 07:07:25;;;;;;;29.30;17.98;;;;;;;-1.33;81.80;101322.13;1755837;80;21189;-71
2021/01/11 07:09:57;;;;;;;28.02;17.32;;;;;;;-1.28;81.69;101323.80;1771068;80;21084;-73
2021/01/11 07:12:26;;;;;;;24.00;15.80;;;;;;;-1.25;81.59;101322.63;1757226;80;21186;-71
2021/01/11 07:15:09;;;;;;;29.15;18.30;;;;;;;-1.28;81.53;101316.42;1761933;80;21057;-72
2021/01/11 07:17:40;;;;;;;29.05;18.30;;;;;;;-1.30;81.54;101317.88;1771964;80;21202;-73
2021/01/11 07:20:11;;;;;;;32.45;20.55;;;;;;;-1.37;81.53;101316.89;1778150;80;21342;-72
2021/01/11 07:22:40;;;;;;;22.48;14.33;;;;;;;-1.36;81.59;101313.77;1747869;80;21172;-72
2021/01/11 07:25:24;;;;;;;29.77;19.55;;;;;;;-1.31;81.69;101309.70;1774457;80;21219;-72
2021/01/11 07:27:57;;;;;;;31.20;20.00;;;;;;;-1.22;81.68;101313.98;1772433;80;21111;-72
2021/01/11 07:30:25;;;;;;;27.93;18.10;;;;;;;-1.15;81.57;101312.00;1782118;80;21071;-72
2021/01/11 07:32:54;;;;;;;29.37;18.75;;;;;;;-1.14;81.47;101312.35;1777470;78;21838;-72
2021/01/11 07:35:22;;;;;;;32.30;20.08;;;;;;;-1.22;81.44;101317.91;1757666;80;21194;-72
2021/01/11 07:37:49;;;;;;;32.98;21.10;;;;;;;-1.27;81.51;101320.19;1760413;80;21103;-72
2021/01/11 07:40:17;;;;;;;35.05;21.73;;;;;;;-1.22;81.63;101320.53;1773580;80;21650;-71
2021/01/11 07:42:44;;;;;;;39.48;22.27;;;;;;;-1.15;81.63;101313.31;1760938;78;21484;-72
2021/01/11 07:45:13;;;;;;;34.53;20.08;;;;;;;-1.09;81.59;101316.61;1727466;80;21372;-73
2021/01/11 07:47:50;;;;;;;32.93;20.00;;;;;;;-1.02;81.51;101319.75;1771219;79;21198;-72
2021/01/11 07:50:20;;;;;;;31.80;19.15;;;;;;;-1.06;81.47;101323.66;1760245;80;21158;-71
2021/01/11 07:52:48;;;;;;;33.45;22.37;;;;;;;-1.08;81.51;101326.95;1770939;78;21558;-73
2021/01/11 07:55:16;;;;;;;34.40;21.12;;;;;;;-1.05;81.57;101333.67;1766368;80;21161;-72
2021/01/11 07:57:43;;;;;;;35.50;22.05;;;;;;;-0.97;81.64;101333.67;1754556;80;22776;-72
2021/01/11 08:00:14;;;;;;;33.58;21.15;;;;;;;-0.91;81.58;101330.41;1766850;80;21636;-71
2021/01/11 08:02:45;;;;;;;34.50;21.27;;;;;;;-0.87;81.47;101332.21;1771293;80;21075;-73
2021/01/11 08:05:24;;;;;;;34.63;21.85;;;;;;;-0.83;81.39;101334.83;1767719;78;21126;-72
2021/01/11 08:08:06;;;;;;;33.67;21.52;;;;;;;-0.76;81.41;101336.66;1769656;80;21544;-73
2021/01/11 08:10:35;;;;;;;33.38;20.72;;;;;;;-0.67;81.28;101339.27;1765674;80;21196;-71
2021/01/11 08:13:07;;;;;;;34.63;21.25;;;;;;;-0.68;81.14;101337.64;1763299;80;21630;-72
2021/01/11 08:15:35;;;;;;;35.90;22.42;;;;;;;-0.74;81.10;101338.61;1774329;80;21117;-72
2021/01/11 08:18:03;;;;;;;41.42;23.22;;;;;;;-0.78;81.08;101336.48;1744833;80;21203;-73
2021/01/11 08:20:31;;;;;;;37.45;23.02;;;;;;;-0.78;81.05;101341.73;1765709;80;21567;-71
2021/01/11 08:23:12;;;;;;;39.27;22.82;;;;;;;-0.76;81.08;101347.15;1758203;80;21202;-72
2021/01/11 08:25:40;;;;;;;34.67;21.65;;;;;;;-0.71;81.11;101350.09;1766818;80;21703;-73
2021/01/11 08:28:09;;;;;;;38.63;24.02;;;;;;;-0.73;80.96;101341.55;1756958;80;21111;-72
2021/01/11 08:30:37;;;;;;;41.02;24.67;;;;;;;-0.77;81.02;101344.17;1761657;80;21158;-72
2021/01/11 08:33:07;;;;;;;35.40;22.00;;;;;;;-0.68;81.08;101346.82;1774473;80;21097;-71
2021/01/11 08:35:35;;;;;;;40.75;24.25;;;;;;;-0.65;80.98;101355.68;1763099;78;21328;-70
2021/01/11 08:38:05;;;;;;;35.68;22.20;;;;;;;-0.66;81.00;101354.83;1753802;80;21229;-71
2021/01/11 08:40:33;;;;;;;35.83;22.67;;;;;;;-0.62;81.04;101345.67;1766710;80;21136;-72
2021/01/11 08:43:13;;;;;;;37.28;23.18;;;;;;;-0.57;81.01;101349.10;1769912;80;21263;-73
2021/01/11 08:45:41;;;;;;;33.05;20.52;;;;;;;-0.51;80.99;101349.77;1755353;80;21103;-73
2021/01/11 08:48:15;;;;;;;33.10;21.68;;;;;;;-0.48;80.82;101356.81;1764893;80;21439;-71
2021/01/11 08:50:56;;;;;;;35.60;22.25;;;;;;;-0.51;80.72;101349.77;1754552;81;21205;-72
2021/01/11 08:53:35;;;;;;;33.00;20.92;;;;;;;-0.50;80.68;101352.20;1769815;80;21212;-72
2021/01/11 08:56:08;;;;;;;30.00;18.65;;;;;;;-0.47;80.63;101353.19;1752079;80;21218;-72
2021/01/11 08:58:38;;;;;;;29.23;19.48;;;;;;;-0.41;80.51;101350.91;1767348;80;21184;-71
2021/01/11 09:01:15;;;;;;;33.50;22.00;;;;;;;-0.37;80.41;101353.02;1759506;80;21356;-71
2021/01/11 09:03:55;;;;;;;32.40;21.05;;;;;;;-0.31;80.31;101352.86;1759576;80;21695;-73
2021/01/11 09:06:43;;;;;;;31.97;20.20;;;;;;;-0.29;80.19;101349.09;1753674;79;21206;-71
2021/01/11 09:09:19;;;;;;;35.25;22.42;;;;;;;-0.25;80.11;101349.08;1756942;80;21188;-70
2021/01/11 09:11:48;;;;;;;32.35;19.77;;;;;;;-0.23;80.02;101341.05;1756663;80;21190;-72
2021/01/11 09:14:18;;;;;;;28.35;17.87;;;;;;;-0.18;79.92;101341.36;1759372;80;21371;-71
2021/01/11 09:16:47;;;;;;;29.75;19.25;;;;;;;-0.20;79.78;101341.19;1765841;80;21218;-72
2021/01/11 09:19:17;;;;;;;29.45;19.60;;;;;;;-0.30;79.76;101336.12;1763223;80;21184;-73
2021/01/11 09:22:14;;;;;;;30.88;19.77;;;;;;;-0.28;79.73;101340.22;1759863;80;21210;-70
2021/01/11 09:24:36;;;;;;;29.10;18.05;;;;;;;-0.26;79.56;101337.45;1757794;78;21126;-73
2021/01/11 09:27:03;;;;;;;31.25;20.35;;;;;;;-0.28;79.34;101337.59;1768619;80;22010;-74
2021/01/11 09:29:31;;;;;;;32.03;20.08;;;;;;;-0.31;79.26;101333.17;1706912;81;21246;-73
2021/01/11 09:32:00;;;;;;;32.10;20.13;;;;;;;-0.28;79.25;101332.84;1645544;80;9999667;-74
2021/01/11 09:34:27;;;;;;;32.08;19.50;;;;;;;-0.21;79.23;101330.38;1759705;80;22096;-74
2021/01/11 09:36:57;;;;;;;31.48;20.12;;;;;;;-0.16;79.17;101330.20;1769908;80;21365;-72
2021/01/11 09:39:24;;;;;;;33.63;20.35;;;;;;;-0.14;79.02;101327.41;1761028;80;21234;-72
2021/01/11 09:41:55;;;;;;;32.93;20.50;;;;;;;-0.11;79.01;101330.51;1765274;80;21238;-75
2021/01/11 09:44:22;;;;;;;33.08;20.35;;;;;;;-0.05;78.98;101331.66;1767921;80;21194;-73
2021/01/11 09:46:53;;;;;;;31.55;19.37;;;;;;;0.01;78.86;101333.61;1765194;78;21281;-72
2021/01/11 09:49:21;;;;;;;32.83;20.37;;;;;;;0.02;78.74;101332.61;1767038;80;21193;-73
2021/01/11 09:51:49;;;;;;;33.02;20.52;;;;;;;0.03;78.65;101330.30;1765890;80;21198;-72
2021/01/11 09:54:17;;;;;;;31.93;20.50;;;;;;;0.05;78.53;101323.58;1767615;78;21741;-73
2021/01/11 09:56:45;;;;;;;33.78;21.30;;;;;;;0.11;78.43;101323.73;1766856;78;21154;-74
2021/01/11 09:59:14;;;;;;;31.20;18.82;;;;;;;0.18;78.24;101319.92;1770475;78;21162;-73
2021/01/11 10:01:48;;;;;;;31.55;19.15;;;;;;;0.22;78.05;101322.53;1770291;80;22296;-73
2021/01/11 10:04:19;;;;;;;31.85;21.85;;;;;;;0.19;77.83;101324.19;1771322;78;21211;-72
2021/01/11 10:06:53;;;;;;;34.15;22.42;;;;;;;0.15;77.74;101315.02;1762997;80;21709;-73
2021/01/11 10:09:23;;;;;;;34.13;22.80;;;;;;;0.19;77.75;101313.17;1765952;78;21673;-72
2021/01/11 10:11:56;;;;;;;31.93;21.27;;;;;;;0.24;77.68;101311.37;1768624;80;23249;-72
2021/01/11 10:14:24;;;;;;;35.28;22.85;;;;;;;0.29;77.58;101315.60;1749142;80;26831;-73
2021/01/11 10:16:52;;;;;;;35.98;22.52;;;;;;;0.28;77.37;101317.10;1756406;79;21242;-73
2021/01/11 10:19:28;;;;;;;39.83;25.08;;;;;;;0.19;77.15;101313.67;1741574;81;21209;-72
2021/01/11 10:21:59;;;;;;;39.38;25.25;;;;;;;0.14;77.10;101310.25;1748307;81;21188;-71
2021/01/11 10:24:27;;;;;;;45.23;24.18;;;;;;;0.17;77.12;101310.42;1744285;81;21628;-73
2021/01/11 10:26:56;;;;;;;38.95;24.05;;;;;;;0.19;77.04;101309.23;1743653;79;22373;-72
2021/01/11 10:29:24;;;;;;;39.75;26.40;;;;;;;0.15;76.95;101305.31;1742826;81;21126;-72
2021/01/11 10:31:54;;;;;;;36.83;24.32;;;;;;;0.14;77.02;101302.38;1744425;81;21618;-73
2021/01/11 10:34:23;;;;;;;37.03;23.90;;;;;;;0.16;77.01;101299.06;1747231;81;21176;-75
2021/01/11 10:36:52;;;;;;;37.33;22.32;;;;;;;0.21;77.00;101294.63;1749842;79;21169;-74
2021/01/11 10:39:24;;;;;;;36.68;24.63;;;;;;;0.19;76.75;101290.03;1750417;81;22262;-72
2021/01/11 10:41:54;;;;;;;37.75;24.15;;;;;;;0.12;76.65;101291.70;1757211;81;21188;-74
2021/01/11 10:47:08;;;;;;;37.90;28.10;;;;;;;0.14;76.76;101287.93;1818887;77;28020;-74
2021/01/11 10:49:38;;;;;;;35.35;25.23;;;;;;;0.17;76.70;101295.97;1830822;76;21049;-73
2021/01/11 10:52:06;;;;;;;35.88;24.72;;;;;;;0.22;76.61;101290.50;1813035;77;21196;-73
2021/01/11 10:54:34;;;;;;;35.95;23.30;;;;;;;0.28;76.61;101294.77;1814204;77;21580;-74
2021/01/11 10:57:02;;;;;;;40.35;25.85;;;;;;;0.31;76.55;101299.69;1833720;77;21179;-72
2021/01/11 10:59:32;;;;;;;39.73;24.85;;;;;;;0.30;76.44;101295.42;1812096;77;21780;-75
2021/01/11 11:02:00;;;;;;;34.13;22.05;;;;;;;0.33;76.46;101291.11;1836489;77;21155;-75
2021/01/11 11:04:28;;;;;;;34.58;22.80;;;;;;;0.38;76.36;101289.62;1849693;76;21822;-75
2021/01/11 11:06:57;;;;;;;35.33;22.87;;;;;;;0.40;76.24;101290.28;1851740;77;21196;-74
2021/01/11 11:09:25;;;;;;;36.38;24.18;;;;;;;0.41;76.08;101287.97;1798556;78;21586;-72
2021/01/11 11:11:54;;;;;;;37.60;22.00;;;;;;;0.38;76.00;101287.48;1818396;77;21204;-73
2021/01/11 11:14:22;;;;;;;34.90;21.55;;;;;;;0.37;76.01;101281.42;1794569;78;21161;-72
2021/01/11 11:16:55;;;;;;;35.38;24.07;;;;;;;0.38;75.98;101279.61;1820640;77;22285;-73
2021/01/11 11:19:23;;;;;;;36.00;23.38;;;;;;;0.37;75.88;101276.16;1816123;78;21216;-73
2021/01/11 11:21:51;;;;;;;37.15;24.57;;;;;;;0.39;75.87;101270.22;1812667;78;21175;-74
2021/01/11 11:24:19;;;;;;;38.35;24.50;;;;;;;0.43;75.86;101274.67;1821525;78;21126;-74
2021/01/11 11:26:47;;;;;;;36.75;23.15;;;;;;;0.46;75.84;101275.61;1816794;78;21183;-74
2021/01/11 11:29:15;;;;;;;37.98;24.52;;;;;;;0.48;75.75;101273.64;1821247;78;21336;-74
2021/01/11 11:31:45;;;;;;;42.78;24.67;;;;;;;0.48;75.63;101267.06;1812584;77;21218;-72
2021/01/11 11:34:12;;;;;;;36.77;23.90;;;;;;;0.50;75.56;101265.59;1839324;77;21634;-73
2021/01/11 11:36:41;;;;;;;38.80;24.63;;;;;;;0.55;75.52;101265.88;1816569;77;21173;-74